Flight Track Log - Related Links

Times and Time Zones

All times are in EDT time to prevent confusion due to time zone crossing. See the G-VROC flight status page for this flight to view local times or setup timezone preferences in your user account.

Time Position Orientation Groundspeed Altitude Reporting Facility
EDT Latitude Longitude Course Direction KTS MPH feet Rate Location/Type
Tue 08:37:05 AM 51.4768 -0.5345 263° West 160 184 1,300  Level FlightAware ADS-B
Tue 08:37:09 AM 51.4764 -0.5394 255° West 163 188 1,400 1,333 Climbing FlightAware ADS-B
Tue 08:37:14 AM 51.4756 -0.5443 255° West 171 197 1,500 900 Climbing FlightAware ADS-B
Tue 08:37:29 AM 51.4720 -0.5654 254° West 193 222 1,700 968 Climbing FlightAware ADS-B
Tue 08:37:45 AM 51.4681 -0.5872 255° West 211 243 2,000 1,161 Climbing FlightAware ADS-B
Tue 08:38:00 AM 51.4640 -0.6125 255° West 230 265 2,300 1,548 Climbing FlightAware ADS-B
Tue 08:38:16 AM 51.4594 -0.6400 256° West 246 283 2,800 2,143 Climbing FlightAware ADS-B
Tue 08:38:28 AM 51.4563 -0.6599 261° West 255 293 3,300 2,700 Climbing FlightAware ADS-B
Tue 08:38:36 AM 51.4547 -0.6769 264° West 258 297 3,700 2,769 Climbing FlightAware ADS-B
Tue 08:38:41 AM 51.4542 -0.6844 269° West 258 297 3,900 2,667 Climbing FlightAware ADS-B
Tue 08:38:45 AM 51.4541 -0.6939 272° West 259 298 4,100 3,000 Climbing FlightAware ADS-B
Tue 08:38:49 AM 51.4543 -0.7016 276° West 259 298 4,300 2,667 Climbing FlightAware ADS-B
Tue 08:38:54 AM 51.4548 -0.7094 281° West 261 300 4,500 3,000 Climbing FlightAware ADS-B
Tue 08:38:57 AM 51.4555 -0.7150 284° West 262 302 4,700 3,429 Climbing FlightAware ADS-B
Tue 08:39:01 AM 51.4567 -0.7227 289° West 263 303 4,900 2,667 Climbing FlightAware ADS-B
Tue 08:39:06 AM 51.4591 -0.7338 291° West 265 305 5,100 3,143 Climbing FlightAware ADS-B
Tue 08:39:22 AM 51.4657 -0.7615 290° West 266 306 6,000 3,097 Climbing FlightAware ADS-B
Tue 08:39:37 AM 51.4725 -0.7913 291° West 272 313 6,700 2,800 Climbing FlightAware ADS-B
Tue 08:39:52 AM 51.4794 -0.8201 290° West 276 318 7,400 2,903 Climbing FlightAware ADS-B
Tue 08:40:08 AM 51.4861 -0.8489 289° West 279 321 8,200 2,710 Climbing FlightAware ADS-B
Tue 08:40:23 AM 51.4930 -0.8805 289° West 286 329 8,800 2,400 Climbing FlightAware ADS-B
Tue 08:40:38 AM 51.4996 -0.9110 290° West 292 336 9,400 2,348 Climbing FlightAware ADS-B
Tue 08:41:09 AM 51.5139 -0.9752 290° West 305 351 10,600 1,831 Climbing FlightAware ADS-B
Tue 08:41:37 AM 51.5283 -1.0379 288° West 337 388 11,200 1,167 Climbing FlightAware ADS-B
Tue 08:41:45 AM 51.5323 -1.0571 285° West 348 400 11,300 1,231 Climbing FlightAware ADS-B
Tue 08:42:16 AM 51.5455 -1.1347 285° West 375 432 12,000 1,770 Climbing FlightAware ADS-B
Tue 08:42:46 AM 51.5595 -1.2199 284° West 387 445 13,100 2,400 Climbing FlightAware ADS-B
Tue 08:43:16 AM 51.5725 -1.3041 285° West 393 452 14,400 2,488 Climbing FlightAware ADS-B
Tue 08:43:27 AM 51.5768 -1.3296 285° West 395 455 14,800 2,229 Climbing FlightAware ADS-B
Tue 08:43:51 AM 51.5877 -1.3951 285° West 398 458 15,700 2,333 Climbing FlightAware ADS-B
Tue 08:44:21 AM 51.6033 -1.4903 285° West 406 467 16,900 2,400 Climbing FlightAware ADS-B
Tue 08:44:51 AM 51.6176 -1.5785 285° West 411 473 18,100 2,400 Climbing FlightAware ADS-B
Tue 08:45:21 AM 51.6322 -1.6678 284° West 417 480 19,300 2,200 Climbing FlightAware ADS-B
Tue 08:45:51 AM 51.6467 -1.7586 285° West 424 488 20,300 1,935 Climbing FlightAware ADS-B
Tue 08:46:23 AM 51.6628 -1.8576 285° West 434 499 21,300 1,839 Climbing FlightAware ADS-B
Tue 08:46:53 AM 51.6784 -1.9523 285° West 444 511 22,200 1,869 Climbing FlightAware ADS-B
Tue 08:47:24 AM 51.6945 -2.0489 285° West 450 518 23,200 1,754 Climbing FlightAware ADS-B
Tue 08:47:58 AM 51.7133 -2.1610 286° West 462 532 24,100 1,662 Climbing FlightAware ADS-B
Tue 08:48:29 AM 51.7316 -2.2648 286° West 471 542 25,000 1,869 Climbing FlightAware ADS-B
Tue 08:48:59 AM 51.7499 -2.3702 286° West 478 550 26,000 1,900 Climbing FlightAware ADS-B
Tue 08:49:29 AM 51.7686 -2.4737 286° West 485 558 26,900 1,770 Climbing FlightAware ADS-B
Tue 08:50:00 AM 51.7871 -2.5790 285° West 491 565 27,800 1,853 Climbing FlightAware ADS-B
Tue 08:50:37 AM 51.8097 -2.7137 284° West 496 571 29,000 1,218 Climbing FlightAware ADS-B
Tue 08:56:44 AM 52.0057 -3.9896 283° West 478 550 36,000 1,022 Climbing FlightAware ADS-B
Tue 08:57:28 AM 52.0285 -4.1460 299° West 478 550 36,000 12 Level FlightAware ADS-B
Tue 09:05:26 AM 52.2594 -5.6781 300° West  Level FlightAware Approximate
Tue 09:06:26 AM 52.2870 -5.8715 300° West  Level FlightAware Approximate
Tue 09:07:26 AM 52.3143 -6.0651 300° West  Level FlightAware Approximate
Tue 09:08:26 AM 52.3412 -6.2590 300° West  Level FlightAware Approximate
Tue 09:09:26 AM 52.3679 -6.4532 300° West  Level FlightAware Approximate
Tue 09:10:26 AM 52.3942 -6.6475 300° West  Level FlightAware Approximate
Tue 09:11:26 AM 52.4202 -6.8421 300° West  Level FlightAware Approximate
Tue 09:12:26 AM 52.4458 -7.0369 300° West  Level FlightAware Approximate
Tue 09:13:26 AM 52.4712 -7.2320 300° West  Level FlightAware Approximate
Tue 09:14:26 AM 52.4962 -7.4272 301° West  Level FlightAware Approximate
Tue 09:15:26 AM 52.5209 -7.6227 301° West  Level FlightAware Approximate
Tue 09:16:26 AM 52.5453 -7.8184 301° West  Level FlightAware Approximate
Tue 09:17:26 AM 52.5694 -8.0144 301° West  Level FlightAware Approximate
Tue 09:18:26 AM 52.5931 -8.2105 301° West  Level FlightAware Approximate
Tue 09:19:26 AM 52.6165 -8.4068 301° West  Level FlightAware Approximate
Tue 09:20:26 AM 52.6396 -8.6034 301° West  Level FlightAware Approximate
Tue 09:21:26 AM 52.6648 -8.8208 302° West  Level FlightAware Approximate
Tue 09:22:26 AM 52.6895 -9.0384 302° West  Level FlightAware Approximate
Tue 09:23:26 AM 52.7138 -9.2562 302° West  Level FlightAware Approximate
Tue 09:24:26 AM 52.7355 -9.4536 302° West  Level FlightAware Approximate
Tue 09:25:26 AM 52.7569 -9.6512 302° West  Level FlightAware Approximate
Tue 09:26:26 AM 52.7779 -9.8491 303° West  Level FlightAware Approximate
Tue 09:27:26 AM 52.7986 -10.0471 303° West  Level FlightAware Approximate
Tue 09:28:26 AM 52.8190 -10.2453 303° West  Level FlightAware Approximate
Tue 09:29:26 AM 52.8390 -10.4437 303° West  Level FlightAware Approximate
Tue 09:30:26 AM 52.8587 -10.6422 304° West  Level FlightAware Approximate
Tue 09:31:26 AM 52.8781 -10.8410 304° West  Level FlightAware Approximate
Tue 09:32:26 AM 52.8971 -11.0399 304° West  Level FlightAware Approximate
Tue 09:33:26 AM 52.9158 -11.2389 305° West  Level FlightAware Approximate
Tue 09:34:26 AM 52.9342 -11.4382 305° West  Level FlightAware Approximate
Tue 09:35:26 AM 52.9522 -11.6376 305° West  Level FlightAware Approximate
Tue 09:36:26 AM 52.9699 -11.8372 306° West  Level FlightAware Approximate
Tue 09:37:26 AM 52.9873 -12.0370 306° West  Level FlightAware Approximate
Tue 09:38:26 AM 53.0043 -12.2369 307° West  Level FlightAware Approximate
Tue 09:39:26 AM 53.0210 -12.4369 307° West  Level FlightAware Approximate
Tue 09:40:26 AM 53.0374 -12.6372 308° West  Level FlightAware Approximate
Tue 09:41:26 AM 53.0535 -12.8375 308° West  Level FlightAware Approximate
Tue 09:42:26 AM 53.0691 -13.0381 309° West  Level FlightAware Approximate
Tue 09:43:26 AM 53.0845 -13.2387 309° West  Level FlightAware Approximate
Tue 09:44:26 AM 53.0995 -13.4395 310° West  Level FlightAware Approximate
Tue 09:45:26 AM 53.1142 -13.6405 311° West  Level FlightAware Approximate
Tue 09:46:26 AM 53.1286 -13.8415 311° West  Level FlightAware Approximate
Tue 09:47:26 AM 53.1426 -14.0428 312° West  Level FlightAware Approximate
Tue 09:48:26 AM 53.1562 -14.2441 313° West  Level FlightAware Approximate
Tue 09:49:26 AM 53.1695 -14.4456 314° West  Level FlightAware Approximate
Tue 09:50:26 AM 53.1825 -14.6472 314° West  Level FlightAware Approximate
Tue 09:51:26 AM 53.1952 -14.8489 315° West  Level FlightAware Approximate
Tue 09:52:26 AM 53.2515 -15.0262 316° Northwest  Level FlightAware Approximate
Tue 09:53:26 AM 53.2629 -15.2284 317° Northwest  Level FlightAware Approximate
Tue 09:54:26 AM 53.2739 -15.4307 318° Northwest  Level FlightAware Approximate
Tue 09:55:26 AM 53.2846 -15.6332 319° Northwest  Level FlightAware Approximate
Tue 09:56:26 AM 53.2950 -15.8357 320° Northwest  Level FlightAware Approximate
Tue 09:57:26 AM 53.3050 -16.0384 321° Northwest  Level FlightAware Approximate
Tue 09:58:26 AM 53.3147 -16.2411 323° Northwest  Level FlightAware Approximate
Tue 09:59:26 AM 53.3240 -16.4440 324° Northwest  Level FlightAware Approximate
Tue 10:00:26 AM 53.3330 -16.6469 325° Northwest  Level FlightAware Approximate
Tue 10:01:26 AM 53.3417 -16.8499 327° Northwest  Level FlightAware Approximate
Tue 10:02:26 AM 53.3500 -17.0530 328° Northwest  Level FlightAware Approximate
Tue 10:03:26 AM 53.3579 -17.2561 330° Northwest  Level FlightAware Approximate
Tue 10:04:26 AM 53.3655 -17.4594 332° Northwest  Level FlightAware Approximate
Tue 10:05:26 AM 53.3728 -17.6627 334° Northwest  Level FlightAware Approximate
Tue 10:06:26 AM 53.3797 -17.8661 336° Northwest  Level FlightAware Approximate
Tue 10:07:26 AM 53.3863 -18.0695 338° Northwest  Level FlightAware Approximate
Tue 10:08:26 AM 53.3925 -18.2730 340° North  Level FlightAware Approximate
Tue 10:09:26 AM 53.3984 -18.4765 342° North  Level FlightAware Approximate
Tue 10:10:26 AM 53.4039 -18.6802 344° North  Level FlightAware Approximate
Tue 10:11:26 AM 53.4091 -18.8838 346° North  Level FlightAware Approximate
Tue 10:12:26 AM 53.4139 -19.0875 349° North  Level FlightAware Approximate
Tue 10:13:26 AM 53.4184 -19.2913 351° North  Level FlightAware Approximate
Tue 10:14:26 AM 53.4226 -19.4951 354° North  Level FlightAware Approximate
Tue 10:15:26 AM 53.4264 -19.6989 356° North  Level FlightAware Approximate
Tue 10:16:26 AM 53.4298 -19.9028 359° North  Level FlightAware Approximate
Tue 10:17:26 AM 53.4329 -20.1067 North  Level FlightAware Approximate
Tue 10:18:00 AM 56.0000 -20.0000 285° West 429 494 37,000  Level ETMS Enhanced Traffic Management System
Tue 10:49:00 AM 56.7880 -26.4560 253° West -1  Descending FlightAware Direct Aircraft Datalink
Tue 10:49:26 AM 56.7582 -26.6318 279° West 429 494 37,000 25,884 Climbing FlightAware Transoceanic
Tue 10:50:26 AM 56.7765 -26.8468 279° West 429 494 37,000  Level FlightAware Transoceanic
Tue 10:51:26 AM 56.7944 -27.0620 279° West 429 494 37,000  Level FlightAware Transoceanic
Tue 10:52:26 AM 56.8119 -27.2774 278° West 429 494 37,000  Level FlightAware Transoceanic
Tue 10:53:26 AM 56.8290 -27.4930 278° West 429 494 37,000  Level FlightAware Transoceanic
Tue 10:54:26 AM 56.8458 -27.7088 278° West 429 494 37,000  Level FlightAware Transoceanic
Tue 10:55:26 AM 56.8621 -27.9248 278° West 429 494 37,000  Level FlightAware Transoceanic
Tue 10:56:26 AM 56.8782 -28.1410 278° West 429 494 37,000  Level FlightAware Transoceanic
Tue 10:57:26 AM 56.8938 -28.3573 277° West 429 494 37,000  Level FlightAware Transoceanic
Tue 10:58:26 AM 56.9091 -28.5739 277° West 429 494 37,000  Level FlightAware Transoceanic
Tue 10:59:26 AM 56.9240 -28.7906 277° West 429 494 37,000  Level FlightAware Transoceanic
Tue 11:00:26 AM 56.9385 -29.0075 277° West 429 494 37,000  Level FlightAware Transoceanic
Tue 11:01:26 AM 56.9526 -29.2245 277° West 429 494 37,000  Level FlightAware Transoceanic
Tue 11:02:26 AM 56.9664 -29.4418 277° West 429 494 37,000  Level FlightAware Transoceanic
Tue 11:03:26 AM 56.9798 -29.6591 276° West 429 494 37,000  Level FlightAware Transoceanic
Tue 11:04:26 AM 56.9928 -29.8767 270° West 429 494 37,000 -491 Level FlightAware Transoceanic
Tue 11:05:26 AM 56.9554 -30.0888 270° West  Level FlightAware Approximate
Tue 11:06:26 AM 56.9176 -30.3005 270° West  Level FlightAware Approximate
Tue 11:07:26 AM 56.8794 -30.5118 270° West  Level FlightAware Approximate
Tue 11:08:26 AM 56.8409 -30.7226 270° West  Level FlightAware Approximate
Tue 11:09:26 AM 56.8021 -30.9330 270° West  Level FlightAware Approximate
Tue 11:10:26 AM 56.7629 -31.1430 270° West  Level FlightAware Approximate
Tue 11:11:26 AM 56.7233 -31.3525 270° West  Level FlightAware Approximate
Tue 11:12:26 AM 56.6834 -31.5616 270° West  Level FlightAware Approximate
Tue 11:13:26 AM 56.6432 -31.7703 270° West  Level FlightAware Approximate
Tue 11:14:26 AM 56.6026 -31.9784 271° West  Level FlightAware Approximate
Tue 11:15:26 AM 56.5616 -32.1862 271° West  Level FlightAware Approximate
Tue 11:16:26 AM 56.5203 -32.3935 271° West  Level FlightAware Approximate
Tue 11:17:05 AM 55.8759 -32.3903 275° West  Level FlightAware Approximate
Tue 11:18:26 AM 55.8250 -32.6682 276° West  Level FlightAware Approximate
Tue 11:19:26 AM 55.7869 -32.8735 276° West  Level FlightAware Approximate
Tue 11:20:26 AM 55.7485 -33.0784 276° West  Level FlightAware Approximate
Tue 11:21:26 AM 55.7097 -33.2830 276° West  Level FlightAware Approximate
Tue 11:22:26 AM 55.6706 -33.4871 276° West  Level FlightAware Approximate
Tue 11:23:26 AM 55.6312 -33.6908 277° West  Level FlightAware Approximate
Tue 11:24:26 AM 55.5914 -33.8941 277° West  Level FlightAware Approximate
Tue 11:25:26 AM 55.5513 -34.0970 277° West  Level FlightAware Approximate
Tue 11:26:26 AM 55.5108 -34.2994 277° West  Level FlightAware Approximate
Tue 11:27:26 AM 55.4700 -34.5015 278° West  Level FlightAware Approximate
Tue 11:28:26 AM 55.4289 -34.7031 278° West  Level FlightAware Approximate
Tue 11:29:26 AM 55.3874 -34.9043 278° West  Level FlightAware Approximate
Tue 11:30:26 AM 55.3457 -35.1051 279° West  Level FlightAware Approximate
Tue 11:31:26 AM 55.3036 -35.3055 279° West  Level FlightAware Approximate
Tue 11:32:26 AM 55.2611 -35.5054 279° West  Level FlightAware Approximate
Tue 11:33:26 AM 55.2183 -35.7049 280° West  Level FlightAware Approximate
Tue 11:34:26 AM 55.1753 -35.9040 280° West  Level FlightAware Approximate
Tue 11:35:26 AM 55.1318 -36.1027 280° West  Level FlightAware Approximate
Tue 11:36:26 AM 55.0881 -36.3009 281° West  Level FlightAware Approximate
Tue 11:37:26 AM 55.0440 -36.4987 281° West  Level FlightAware Approximate
Tue 11:38:26 AM 54.9997 -36.6960 282° West  Level FlightAware Approximate
Tue 11:39:26 AM 54.9550 -36.8929 282° West  Level FlightAware Approximate
Tue 11:40:26 AM 54.9100 -37.0894 283° West  Level FlightAware Approximate
Tue 11:41:26 AM 54.8646 -37.2854 283° West  Level FlightAware Approximate
Tue 11:42:26 AM 54.8190 -37.4810 284° West  Level FlightAware Approximate
Tue 11:43:26 AM 54.7730 -37.6761 284° West  Level FlightAware Approximate
Tue 11:44:26 AM 54.7268 -37.8708 285° West  Level FlightAware Approximate
Tue 11:45:26 AM 54.6802 -38.0651 286° West  Level FlightAware Approximate
Tue 11:46:26 AM 54.6333 -38.2589 286° West  Level FlightAware Approximate
Tue 11:47:26 AM 54.5861 -38.4522 287° West  Level FlightAware Approximate
Tue 11:48:26 AM 54.5386 -38.6451 288° West  Level FlightAware Approximate
Tue 11:49:26 AM 54.4908 -38.8376 289° West  Level FlightAware Approximate
Tue 11:50:26 AM 54.4426 -39.0296 290° West  Level FlightAware Approximate
Tue 11:51:26 AM 54.3942 -39.2211 290° West  Level FlightAware Approximate
Tue 11:52:26 AM 54.3455 -39.4123 291° West  Level FlightAware Approximate
Tue 11:53:26 AM 54.2965 -39.6029 292° West  Level FlightAware Approximate
Tue 11:54:26 AM 54.2472 -39.7931 293° West  Level FlightAware Approximate
Tue 11:55:26 AM 54.1975 -39.9828 294° West  Level FlightAware Approximate
Tue 11:56:26 AM 54.1476 -40.1721 295° West  Level FlightAware Approximate
Tue 11:57:26 AM 54.0974 -40.3609 296° West  Level FlightAware Approximate
Tue 11:58:26 AM 54.0469 -40.5493 298° West  Level FlightAware Approximate
Tue 11:59:26 AM 53.9961 -40.7372 299° West  Level FlightAware Approximate
Tue 12:00:26 PM 53.9450 -40.9247 300° West  Level FlightAware Approximate
Tue 12:01:26 PM 53.8936 -41.1116 301° West  Level FlightAware Approximate
Tue 12:02:26 PM 53.8419 -41.2982 303° West  Level FlightAware Approximate
Tue 12:03:26 PM 53.7899 -41.4842 304° West  Level FlightAware Approximate
Tue 12:04:26 PM 53.7377 -41.6698 306° West  Level FlightAware Approximate
Tue 12:05:26 PM 53.6851 -41.8550 307° West  Level FlightAware Approximate
Tue 12:06:26 PM 53.6323 -42.0396 309° West  Level FlightAware Approximate
Tue 12:07:26 PM 53.5792 -42.2239 311° West  Level FlightAware Approximate
Tue 12:08:26 PM 53.5258 -42.4076 312° West  Level FlightAware Approximate
Tue 12:09:26 PM 53.4721 -42.5909 314° West  Level FlightAware Approximate
Tue 12:10:26 PM 53.4182 -42.7737 316° Northwest  Level FlightAware Approximate
Tue 12:11:26 PM 53.3640 -42.9561 318° Northwest  Level FlightAware Approximate
Tue 12:12:26 PM 53.3094 -43.1380 319° Northwest  Level FlightAware Approximate
Tue 12:13:26 PM 53.2547 -43.3194 321° Northwest  Level FlightAware Approximate
Tue 12:14:26 PM 53.1996 -43.5004 323° Northwest  Level FlightAware Approximate
Tue 12:15:26 PM 53.1443 -43.6809 325° Northwest  Level FlightAware Approximate
Tue 12:16:26 PM 53.0887 -43.8609 327° Northwest  Level FlightAware Approximate
Tue 12:17:26 PM 53.0328 -44.0405 329° Northwest  Level FlightAware Approximate
Tue 12:18:26 PM 52.9767 -44.2196 331° Northwest  Level FlightAware Approximate
Tue 12:19:00 PM 55.7700 -46.9690 251° West -1  Level FlightAware Direct Aircraft Datalink
Tue 12:57:05 PM 53.9833 -54.5500 243° Southwest 440 506 37,000 954 Climbing Moncton Center
Tue 12:57:53 PM 53.9333 -54.7167 253° West 450 518 37,000  Level Gander Center
Tue 12:58:53 PM 53.9000 -54.9000 241° Southwest 450 518 37,000  Level Gander Center
Tue 12:59:53 PM 53.8333 -55.1000 238° Southwest 450 518 37,000  Level Gander Center
Tue 01:00:53 PM 53.7667 -55.2833 222° Southwest 470 541 37,000  Level Gander Center
Tue 01:01:53 PM 53.6667 -55.4333 233° Southwest 480 552 37,000  Level Gander Center
Tue 01:02:53 PM 53.5833 -55.6167 227° Southwest 480 552 37,000 50 Level Gander Center
Tue 01:03:53 PM 53.5000 -55.7667 228° Southwest 480 552 37,100 350 Climbing Gander Center
Tue 01:04:53 PM 53.4000 -55.9500 227° Southwest 470 541 37,700 550 Climbing Gander Center
Tue 01:05:53 PM 53.3167 -56.1000 233° Southwest 480 552 38,200 500 Climbing Gander Center
Tue 01:06:53 PM 53.2333 -56.2833 222° Southwest 490 564 38,700 500 Climbing Gander Center
Tue 01:07:53 PM 53.1333 -56.4333 227° Southwest 470 541 39,200 450 Climbing Gander Center
Tue 01:08:53 PM 53.0500 -56.5833 230° Southwest 470 541 39,600 400 Climbing Gander Center
Tue 01:09:53 PM 52.9667 -56.7500 227° Southwest 470 541 40,000 200 Climbing Gander Center
Tue 01:10:53 PM 52.8833 -56.9000 228° Southwest 470 541 40,000  Level Gander Center
Tue 01:11:53 PM 52.7833 -57.0833 228° Southwest 470 541 40,000  Level Gander Center
Tue 01:12:53 PM 52.7000 -57.2333 224° Southwest 470 541 40,000  Level Gander Center
Tue 01:13:53 PM 52.6167 -57.3667 228° Southwest 470 541 40,000  Level Gander Center
Tue 01:14:53 PM 52.5167 -57.5500 219° Southwest 470 541 40,000  Level Gander Center
Tue 01:15:53 PM 52.4167 -57.6833 233° Southwest 470 541 40,000  Level Gander Center
Tue 01:16:53 PM 52.3333 -57.8667 224° Southwest 470 541 40,000  Level Gander Center
Tue 01:17:53 PM 52.2500 -58.0000 226° Southwest 470 541 40,000  Level Gander Center
Tue 01:18:53 PM 52.1500 -58.1667 223° Southwest 480 552 40,000  Level Gander Center
Tue 01:19:53 PM 52.0500 -58.3167 231° Southwest 470 541 40,000  Level Gander Center
Tue 01:20:53 PM 51.9667 -58.4833 228° Southwest 470 541 40,000  Level Gander Center
Tue 01:21:53 PM 51.8833 -58.6333 231° Southwest 470 541 40,000  Level Gander Center
Tue 01:22:53 PM 51.8000 -58.8000 220° Southwest 470 541 40,000  Level Gander Center
Tue 01:23:53 PM 51.7000 -58.9333 220° Southwest 470 541 40,000  Level Gander Center
Tue 01:24:53 PM 51.6000 -59.0667 231° Southwest 460 529 40,000  Level Gander Center
Tue 01:25:53 PM 51.5167 -59.2333 223° Southwest 460 529 40,000  Level Gander Center
Tue 01:26:53 PM 51.4167 -59.3833 231° Southwest 460 529 40,000  Level Gander Center
Tue 01:27:53 PM 51.3500 -59.5167 226° Southwest 450 518 40,000  Level Gander Center
Tue 01:28:53 PM 51.2500 -59.6833 225° Southwest 450 518 40,000  Level Gander Center
Tue 01:29:53 PM 51.1667 -59.8167 220° Southwest 460 529 40,000  Level Gander Center
Tue 01:30:53 PM 51.0667 -59.9500 232° Southwest 460 529 40,000  Level Gander Center
Tue 01:31:53 PM 50.9833 -60.1167 226° Southwest 460 529 40,000  Level Gander Center
Tue 01:33:05 PM 50.8833 -60.2833 220° Southwest 470 541 40,000  Level Moncton Center
Tue 01:33:53 PM 50.7833 -60.4167 225° Southwest 470 541 40,000  Level Gander Center
Tue 01:34:53 PM 50.7000 -60.5500 225° Southwest 470 541 40,000  Level Gander Center
Tue 01:35:53 PM 50.6167 -60.6833 224° Southwest 470 541 40,000  Level Gander Center
Tue 01:36:53 PM 50.5167 -60.8333 220° Southwest 470 541 40,000  Level Gander Center
Tue 01:37:53 PM 50.4167 -60.9667 224° Southwest 480 552 40,000  Level Gander Center
Tue 01:38:53 PM 50.3167 -61.1167 226° Southwest 470 541 40,000  Level Gander Center
Tue 01:39:53 PM 50.2333 -61.2500 227° Southwest 480 552 40,000  Level Gander Center
Tue 01:40:53 PM 50.1333 -61.4167 221° Southwest 470 541 40,000  Level Gander Center
Tue 01:41:53 PM 50.0333 -61.5500 229° Southwest 480 552 40,000  Level Gander Center
Tue 01:42:53 PM 49.9500 -61.7000 221° Southwest 470 541 40,000  Level Gander Center
Tue 01:43:53 PM 49.8500 -61.8333 224° Southwest 470 541 40,000  Level Gander Center
Tue 01:44:53 PM 49.7500 -61.9833 217° Southwest 470 541 40,000  Level Gander Center
Tue 01:45:53 PM 49.6500 -62.1000 232° Southwest 480 552 40,000  Level Gander Center
Tue 01:46:53 PM 49.5667 -62.2667 224° Southwest 480 552 40,000  Level Gander Center
Tue 01:47:53 PM 49.4667 -62.4167 217° Southwest 480 552 40,000  Level Gander Center
Tue 01:48:53 PM 49.3667 -62.5333 220° Southwest 480 552 40,000  Level Gander Center
Tue 01:49:53 PM 49.2500 -62.6833 221° Southwest 490 564 40,000  Level Gander Center
Tue 01:50:53 PM 49.1500 -62.8167 230° Southwest 490 564 40,000  Level Gander Center
Tue 01:51:53 PM 49.0667 -62.9667 220° Southwest 490 564 40,000  Level Gander Center
Tue 01:52:53 PM 48.9500 -63.1167 230° Southwest 490 564 40,000  Level Gander Center
Tue 01:53:53 PM 48.8667 -63.2667 218° Southwest 490 564 40,000  Level Gander Center
Tue 01:54:53 PM 48.7667 -63.3833 225° Southwest 500 575 40,000  Level Gander Center
Tue 01:55:53 PM 48.6667 -63.5333 220° Southwest 500 575 40,000  Level Gander Center
Tue 01:56:53 PM 48.5500 -63.6833 225° Southwest 500 575 40,000  Level Gander Center
Tue 01:57:53 PM 48.4500 -63.8333 218° Southwest 500 575 40,000  Level Gander Center
Tue 01:58:53 PM 48.3500 -63.9500 225° Southwest 500 575 40,000  Level Gander Center
Tue 01:59:53 PM 48.2500 -64.1000 222° Southwest 500 575 40,000  Level Gander Center
Tue 02:00:53 PM 48.1500 -64.2333 221° Southwest 500 575 40,000  Level Gander Center
Tue 02:01:53 PM 48.0333 -64.3833 222° Southwest 500 575 40,000  Level Gander Center
Tue 02:02:53 PM 47.9333 -64.5167 222° Southwest 500 575 40,000  Level Gander Center
Tue 02:03:53 PM 47.8333 -64.6500 218° Southwest 510 587 40,000  Level Gander Center
Tue 02:04:53 PM 47.7167 -64.7833 225° Southwest 510 587 40,000  Level Gander Center
Tue 02:05:53 PM 47.6167 -64.9333 218° Southwest 500 575 40,000  Level Gander Center
Tue 02:06:53 PM 47.5000 -65.0667 222° Southwest 510 587 40,000  Level Gander Center
Tue 02:07:53 PM 47.4000 -65.2000 221° Southwest 500 575 40,000  Level Gander Center
Tue 02:08:53 PM 47.2833 -65.3500 218° Southwest 500 575 40,000  Level Gander Center
Tue 02:09:53 PM 47.1833 -65.4667 227° Southwest 500 575 40,000  Level Gander Center
Tue 02:10:53 PM 47.1000 -65.6000 217° Southwest 500 575 40,000  Level Gander Center
Tue 02:12:05 PM 46.9500 -65.7667 219° Southwest 500 575 40,000  Level Moncton Center
Tue 02:13:05 PM 46.8500 -65.8833 226° Southwest 500 575 40,000  Level Moncton Center
Tue 02:14:05 PM 46.7500 -66.0333 219° Southwest 500 575 40,000  Level Moncton Center
Tue 02:15:05 PM 46.6500 -66.1500 222° Southwest 500 575 40,000  Level Moncton Center
Tue 02:16:05 PM 46.5333 -66.3000 219° Southwest 500 575 40,000  Level Moncton Center
Tue 02:18:05 PM 46.3167 -66.5500 222° Southwest 500 575 40,000  Level Moncton Center
Tue 02:19:05 PM 46.2000 -66.7000 219° Southwest 500 575 40,000  Level Moncton Center
Tue 02:20:05 PM 46.1000 -66.8167 223° Southwest 500 575 40,000  Level Moncton Center
Tue 02:21:05 PM 46.0000 -66.9500 219° Southwest 500 575 40,000  Level Moncton Center
Tue 02:22:05 PM 45.9000 -67.0667 215° Southwest 500 575 40,000  Level Moncton Center
Tue 02:23:05 PM 45.7667 -67.2000 224° Southwest 500 575 40,000  Level Moncton Center
Tue 02:24:05 PM 45.6833 -67.3167 219° Southwest 490 564 40,000  Level Moncton Center
Tue 02:25:05 PM 45.5667 -67.4500 219° Southwest 490 564 40,000  Level Moncton Center
Tue 02:26:05 PM 45.4667 -67.5667 219° Southwest 490 564 40,000  Level Moncton Center
Tue 02:27:05 PM 45.3667 -67.6833 230° Southwest 490 564 40,000  Level Moncton Center
Tue 02:28:05 PM 45.2667 -67.8500 231° Southwest 480 552 40,000  Level Moncton Center
Tue 02:29:05 PM 45.2019 -67.9619 223° Southwest 490 564 40,000  Level Boston Center
Tue 02:30:05 PM 45.0833 -68.1167 234° Southwest 490 564 40,000  Level Moncton Center
Tue 02:31:05 PM 45.0108 -68.2586 228° Southwest 485 558 40,000  Level Boston Center
Tue 02:32:05 PM 44.9219 -68.4000 226° Southwest 485 558 40,000  Level Boston Center
Tue 02:33:05 PM 44.8289 -68.5381 228° Southwest 485 558 40,000  Level Boston Center
Tue 02:34:05 PM 44.7375 -68.6786 227° Southwest 485 558 40,000  Level Boston Center
Tue 02:35:05 PM 44.6461 -68.8186 227° Southwest 485 558 40,000  Level Boston Center
Tue 02:36:05 PM 44.5525 -68.9614 227° Southwest 490 564 40,000  Level Boston Center
Tue 02:37:05 PM 44.4708 -69.0828 227° Southwest 490 564 40,000  Level Boston Center
Tue 02:38:05 PM 44.3789 -69.2186 227° Southwest 485 558 40,000  Level Boston Center
Tue 02:39:05 PM 44.2847 -69.3572 228° Southwest 485 558 40,000  Level Boston Center
Tue 02:40:05 PM 44.1967 -69.4950 226° Southwest 485 558 40,000  Level Boston Center
Tue 02:41:05 PM 44.1042 -69.6297 226° Southwest 485 558 40,000  Level Boston Center
Tue 02:42:05 PM 44.0114 -69.7639 227° Southwest 485 558 40,000  Level Boston Center
Tue 02:43:05 PM 43.9186 -69.9008 226° Southwest 485 558 40,000  Level Boston Center
Tue 02:44:05 PM 43.8275 -70.0311 228° Southwest 485 558 40,000  Level Boston Center
Tue 02:45:05 PM 43.7306 -70.1789 226° Southwest 485 558 40,000  Level Boston Center
Tue 02:46:05 PM 43.6475 -70.2967 226° Southwest 491 565 40,000  Level Boston Center
Tue 02:47:05 PM 43.5539 -70.4319 227° Southwest 485 558 40,000  Level Boston Center
Tue 02:48:05 PM 43.4625 -70.5664 209° Southwest 485 558 40,000  Level Boston Center
Tue 02:49:05 PM 43.3453 -70.6556 199° South 485 558 40,000 -50 Level Boston Center
Tue 02:50:05 PM 43.2189 -70.7164 200° South 477 549 39,900 -50 Descending Boston Center
Tue 02:51:05 PM 43.0969 -70.7767 201° Southwest 477 549 39,900 50 Level Boston Center
Tue 02:52:05 PM 42.9686 -70.8425 200° South 483 556 40,000 50 Climbing Boston Center
Tue 02:53:05 PM 42.8403 -70.9053 200° South 488 562 40,000  Level Boston Center
Tue 02:54:05 PM 42.7119 -70.9678 199° South 488 562 40,000  Level Boston Center
Tue 02:55:05 PM 42.5856 -71.0272 201° Southwest 488 562 40,000  Level Boston Center
Tue 02:56:05 PM 42.4592 -71.0922 198° South 488 562 40,000  Level Boston Center
Tue 02:57:05 PM 42.3286 -71.1511 200° South 488 562 40,000  Level Boston Center
Tue 02:58:05 PM 42.2019 -71.2125 199° South 488 562 40,000  Level Boston Center
Tue 02:59:05 PM 42.0733 -71.2711 199° South 488 562 40,000 -550 Level Boston Center
Tue 03:00:05 PM 41.9428 -71.3319 199° South 488 562 38,900 -2,050 Descending Boston Center
Tue 03:01:05 PM 41.8142 -71.3928 205° Southwest 494 568 35,900 -2,700 Descending Boston Center
Tue 03:02:05 PM 41.6919 -71.4697 219° Southwest 488 562 33,500 -2,300 Descending Boston Center
Tue 03:03:05 PM 41.5947 -71.5742 221° Southwest 473 544 31,300 -2,150 Descending Boston Center
Tue 03:04:05 PM 41.5017 -71.6806 220° Southwest 461 531 29,200 -2,150 Descending Boston Center
Tue 03:05:05 PM 41.4086 -71.7842 219° Southwest 444 511 27,000 -2,200 Descending Boston Center
Tue 03:06:05 PM 41.3194 -71.8817 219° Southwest 434 499 24,800 -1,550 Descending Boston Center
Tue 03:07:05 PM 41.2325 -71.9764 226° Southwest 422 486 23,900 -1,050 Descending Boston Center
Tue 03:08:05 PM 41.1472 -72.0928 261° West 410 472 22,700 -1,750 Descending Boston Center
Tue 03:09:05 PM 41.1311 -72.2225 245° Southwest 394 453 20,400 -2,150 Descending Boston Center
Tue 03:10:05 PM 41.0833 -72.3603 245° Southwest 388 447 18,400 -1,900 Descending Boston Center
Tue 03:11:05 PM 41.0394 -72.4869 245° Southwest 378 435 16,600 -1,750 Descending Boston Center
Tue 03:12:05 PM 40.9997 -72.6022 240° Southwest 372 428 14,900 -1,654 Descending Boston Center
Tue 03:13:12 PM 40.9500 -72.7167 246° West 303 349 13,100 -1,417 Descending New York TRACON
Tue 03:14:12 PM 40.9167 -72.8167 217° Southwest 300 345 11,900 -762 Descending New York TRACON
Tue 03:15:18 PM 40.8500 -72.8833 210° Southwest 293 337 11,500 -850 Descending New York TRACON
Tue 03:16:12 PM 40.7833 -72.9333 246° West 289 333 10,200 -1,400 Descending New York TRACON
Tue 03:17:18 PM 40.7500 -73.0333 258° West 289 333 8,700 -1,350 Descending New York TRACON
Tue 03:18:12 PM 40.7333 -73.1333 255° West 284 327 7,500 -1,263 Descending New York TRACON
Tue 03:19:12 PM 40.7167 -73.2167 282° West 275 316 6,300 -1,300 Descending New York TRACON
Tue 03:20:12 PM 40.7333 -73.3167 315° West 280 322 4,900 -1,100 Descending New York TRACON
Tue 03:21:12 PM 40.7833 -73.3833 285° West 255 293 4,100 -600 Descending New York TRACON
Tue 03:22:12 PM 40.8000 -73.4667 252° West 205 236 3,700 -450 Descending New York TRACON
Tue 03:23:12 PM 40.7833 -73.5333 252° West 191 220 3,200 -500 Descending New York TRACON
Tue 03:24:12 PM 40.7667 -73.6000 229° Southwest 185 213 2,700 -429 Descending New York TRACON
Tue 03:25:18 PM 40.7333 -73.6500 229° Southwest 181 208 2,300 -476 Descending New York TRACON
Tue 03:26:18 PM 40.7000 -73.7000 229° Southwest 179 206 1,700 -600 Descending New York TRACON

Login

Don't have an account? Register now (free) for customized features, flight alerts, and more!